createdAt,value
2023-05-06T00:01:37.073Z,99513.19
2023-05-06T00:04:03.930Z,99516.38
2023-05-06T00:06:30.633Z,99510.94
2023-05-06T00:08:57.229Z,99503.09
2023-05-06T00:11:23.789Z,99494.94
2023-05-06T00:13:50.384Z,99495.75
2023-05-06T00:16:17.114Z,99494.78
2023-05-06T00:18:43.748Z,99494.31
2023-05-06T00:21:10.329Z,99491.25
2023-05-06T00:23:36.850Z,99484.22
2023-05-06T00:26:03.509Z,99487.75
2023-05-06T00:28:30.116Z,99483.75
2023-05-06T00:30:56.658Z,99475.09
2023-05-06T00:33:23.170Z,99470.44
2023-05-06T00:35:49.741Z,99473.66
2023-05-06T00:38:16.992Z,99469.84
2023-05-06T00:40:43.537Z,99466.59
2023-05-06T00:43:10.103Z,99469.31
2023-05-06T00:45:37.096Z,99466.59
2023-05-06T00:48:06.698Z,99458.13
2023-05-06T00:50:34.517Z,99458.97
2023-05-06T00:53:03.650Z,99473.03
2023-05-06T00:55:31.165Z,99458.78
2023-05-06T00:57:58.231Z,99459.56
2023-05-06T01:00:25.146Z,99460.06
2023-05-06T01:02:51.932Z,99458.63
2023-05-06T01:05:22.286Z,99442.78
2023-05-06T01:08:06.621Z,99454.94
2023-05-06T01:10:40.612Z,99452.72
2023-05-06T01:13:21.483Z,99461.19
2023-05-06T01:15:53.968Z,99455.09
2023-05-06T01:18:26.507Z,99456.69
2023-05-06T01:20:56.009Z,99453.66
2023-05-06T01:23:22.609Z,99449.81
2023-05-06T01:25:49.217Z,99446.63
2023-05-06T01:28:15.760Z,99453.84
2023-05-06T01:30:48.393Z,99445.97
2023-05-06T01:33:24.048Z,99453.81
2023-05-06T01:36:21.884Z,99445.66
2023-05-06T01:38:51.704Z,99449.97
2023-05-06T01:41:19.162Z,99451.25
2023-05-06T01:43:49.019Z,99457.78
2023-05-06T01:46:19.014Z,99456.47
2023-05-06T01:48:47.159Z,99449.72
2023-05-06T01:51:13.774Z,99451.94
2023-05-06T01:53:40.350Z,99451.91
2023-05-06T01:56:07.299Z,99442.94
2023-05-06T01:58:33.860Z,99441.81
2023-05-06T02:01:00.382Z,99452.34
2023-05-06T02:03:27.019Z,99447.81
2023-05-06T02:05:53.630Z,99449.38
2023-05-06T02:08:20.516Z,99454.47
2023-05-06T02:10:47.162Z,99444.84
2023-05-06T02:13:13.789Z,99454.25
2023-05-06T02:15:40.381Z,99447.34
2023-05-06T02:18:07.050Z,99452.28
2023-05-06T02:20:33.626Z,99443.19
2023-05-06T02:23:00.191Z,99440.56
2023-05-06T02:25:26.768Z,99445.81
2023-05-06T02:27:53.357Z,99447.22
2023-05-06T02:30:20.120Z,99446.88
2023-05-06T02:32:47.307Z,99440.47
2023-05-06T02:35:13.876Z,99437.84
2023-05-06T02:37:40.405Z,99429.84
2023-05-06T02:40:08.997Z,99439.72
2023-05-06T02:42:35.986Z,99435.53
2023-05-06T02:45:02.717Z,99436.75
2023-05-06T02:47:29.295Z,99438.00
2023-05-06T02:49:55.882Z,99435.41
2023-05-06T02:52:22.456Z,99432.31
2023-05-06T02:54:48.989Z,99434.03
2023-05-06T02:57:15.514Z,99431.94
2023-05-06T02:59:42.139Z,99432.06
2023-05-06T03:02:08.674Z,99431.06
2023-05-06T03:04:35.458Z,99434.06
2023-05-06T03:07:02.097Z,99431.69
2023-05-06T03:09:28.680Z,99426.25
2023-05-06T03:11:56.536Z,99427.06
2023-05-06T03:14:23.128Z,99425.44
2023-05-06T03:16:49.792Z,99428.97
2023-05-06T03:19:16.367Z,99424.66
2023-05-06T03:21:43.517Z,99424.16
2023-05-06T03:24:10.335Z,99420.97
2023-05-06T03:26:37.047Z,99420.44
2023-05-06T03:29:03.558Z,99416.66
2023-05-06T03:31:30.172Z,99423.69
2023-05-06T03:33:56.757Z,99428.00
2023-05-06T03:36:25.844Z,99430.69
2023-05-06T03:38:52.421Z,99426.06
2023-05-06T03:41:18.976Z,99428.47
2023-05-06T03:43:45.634Z,99433.28
2023-05-06T03:46:12.220Z,99431.34
2023-05-06T03:48:38.872Z,99428.34
2023-05-06T03:51:05.784Z,99434.28
2023-05-06T03:53:32.440Z,99436.16
2023-05-06T03:55:59.096Z,99441.28
2023-05-06T03:58:25.684Z,99433.47
2023-05-06T04:00:52.222Z,99437.97
2023-05-06T04:03:18.963Z,99439.91
2023-05-06T04:05:46.596Z,99442.13
2023-05-06T04:08:13.092Z,99437.78
2023-05-06T04:10:40.617Z,99445.13
2023-05-06T04:13:07.553Z,99440.81
2023-05-06T04:15:35.592Z,99443.03
2023-05-06T04:18:02.333Z,99447.34
2023-05-06T04:20:29.083Z,99446.72
2023-05-06T04:22:55.660Z,99450.13
2023-05-06T04:25:22.422Z,99451.09
2023-05-06T04:27:48.957Z,99458.34
2023-05-06T04:30:15.666Z,99448.16
2023-05-06T04:32:42.342Z,99458.06
2023-05-06T04:35:09.481Z,99454.13
2023-05-06T04:37:36.492Z,99450.22
2023-05-06T04:40:04.653Z,99459.31
2023-05-06T04:42:32.158Z,99457.59
2023-05-06T04:44:59.356Z,99461.63
2023-05-06T04:47:26.249Z,99460.66
2023-05-06T04:49:52.879Z,99458.97
2023-05-06T04:52:19.414Z,99462.66
2023-05-06T04:54:46.024Z,99463.19
2023-05-06T04:57:12.637Z,99468.22
2023-05-06T04:59:39.283Z,99464.72
2023-05-06T05:02:05.981Z,99476.59
2023-05-06T05:04:32.509Z,99473.50
2023-05-06T05:06:59.095Z,99473.50
2023-05-06T05:09:25.883Z,99476.38
2023-05-06T05:11:52.408Z,99470.94
2023-05-06T05:14:19.026Z,99473.31
2023-05-06T05:16:45.683Z,99472.97
2023-05-06T05:19:12.225Z,99478.25
2023-05-06T05:21:39.116Z,99481.25
2023-05-06T05:24:05.961Z,99477.69
2023-05-06T05:26:32.477Z,99483.47
2023-05-06T05:28:59.011Z,99484.69
2023-05-06T05:31:25.754Z,99492.56
2023-05-06T05:33:52.398Z,99495.59
2023-05-06T05:36:19.365Z,99491.53
2023-05-06T05:38:47.777Z,99503.56
2023-05-06T05:41:16.111Z,99502.63
2023-05-06T05:43:43.970Z,99500.69
2023-05-06T05:46:10.573Z,99508.69
2023-05-06T05:48:39.770Z,99505.75
2023-05-06T05:51:06.583Z,99506.69
2023-05-06T05:53:33.094Z,99502.06
2023-05-06T05:55:59.664Z,99510.25
2023-05-06T05:58:26.186Z,99505.91
2023-05-06T06:00:52.852Z,99514.22
2023-05-06T06:03:19.525Z,99507.47
2023-05-06T06:05:46.316Z,99504.75
2023-05-06T06:08:13.340Z,99510.69
2023-05-06T06:10:39.854Z,99512.06
2023-05-06T06:13:06.538Z,99513.22
2023-05-06T06:15:33.109Z,99510.94
2023-05-06T06:17:59.744Z,99515.53
2023-05-06T06:20:26.658Z,99508.97
2023-05-06T06:22:53.179Z,99510.09
2023-05-06T06:25:20.173Z,99512.34
2023-05-06T06:27:46.816Z,99511.06
2023-05-06T06:30:13.513Z,99515.88
2023-05-06T06:32:54.196Z,99519.06
2023-05-06T06:35:20.792Z,99516.41
2023-05-06T06:37:47.921Z,99520.84
2023-05-06T06:40:15.027Z,99512.59
2023-05-06T06:42:41.817Z,99518.84
2023-05-06T06:45:10.016Z,99526.03
2023-05-06T06:47:36.960Z,99525.09
2023-05-06T06:50:03.725Z,99525.63
2023-05-06T06:52:30.398Z,99520.97
2023-05-06T06:54:56.915Z,99519.13
2023-05-06T06:57:23.447Z,99519.97
2023-05-06T06:59:52.631Z,99514.47
2023-05-06T07:02:22.792Z,99517.38
2023-05-06T07:04:49.491Z,99519.31
2023-05-06T07:07:16.053Z,99521.38
2023-05-06T07:09:44.226Z,99514.25
2023-05-06T07:12:11.004Z,99513.09
2023-05-06T07:14:37.637Z,99512.91
2023-05-06T07:17:04.424Z,99519.50
2023-05-06T07:19:33.570Z,99518.56
2023-05-06T07:22:00.754Z,99509.25
2023-05-06T07:24:27.274Z,99509.78
2023-05-06T07:26:53.901Z,99507.34
2023-05-06T07:29:20.623Z,99511.41
2023-05-06T07:31:47.149Z,99515.19
2023-05-06T07:34:13.752Z,99509.72
2023-05-06T07:36:40.904Z,99508.56
2023-05-06T07:39:07.908Z,99511.63
2023-05-06T07:41:34.661Z,99515.97
2023-05-06T07:44:01.529Z,99513.72
2023-05-06T07:46:28.366Z,99514.97
2023-05-06T07:48:55.048Z,99512.94
2023-05-06T07:51:21.851Z,99513.16
2023-05-06T07:53:48.513Z,99516.56
2023-05-06T07:56:15.076Z,99508.72
2023-05-06T07:58:41.620Z,99509.97
2023-05-06T08:01:08.222Z,99513.25
2023-05-06T08:03:35.664Z,99523.75
2023-05-06T08:06:02.703Z,99520.78
2023-05-06T08:08:29.336Z,99524.66
2023-05-06T08:10:57.900Z,99523.19
2023-05-06T08:13:25.841Z,99526.19
2023-05-06T08:15:53.122Z,99528.47
2023-05-06T08:18:22.988Z,99523.66
2023-05-06T08:20:50.111Z,99529.59
2023-05-06T08:23:16.778Z,99525.28
2023-05-06T08:25:43.329Z,99537.47
2023-05-06T08:28:09.858Z,99530.28
2023-05-06T08:30:36.909Z,99531.16
2023-05-06T08:33:03.883Z,99528.94
2023-05-06T08:35:30.702Z,99529.72
2023-05-06T08:37:57.295Z,99523.06
2023-05-06T08:40:27.029Z,99522.75
2023-05-06T08:42:56.040Z,99511.63
2023-05-06T08:45:23.463Z,99507.94
2023-05-06T08:47:50.145Z,99508.72
2023-05-06T08:50:16.892Z,99507.13
2023-05-06T08:52:43.771Z,99513.94
2023-05-06T08:55:10.611Z,99511.41
2023-05-06T08:57:37.684Z,99519.47
2023-05-06T09:00:05.044Z,99508.81
2023-05-06T09:02:31.811Z,99510.19
2023-05-06T09:04:59.973Z,99509.31
2023-05-06T09:07:26.934Z,99513.47
2023-05-06T09:09:53.495Z,99503.41
2023-05-06T09:12:20.340Z,99506.16
2023-05-06T09:14:50.137Z,99504.19
2023-05-06T09:17:24.496Z,99504.19
2023-05-06T09:19:53.276Z,99506.06
2023-05-06T09:22:32.159Z,99503.81
2023-05-06T09:24:59.165Z,99505.28
2023-05-06T09:27:28.118Z,99506.84
2023-05-06T09:30:06.292Z,99500.19
2023-05-06T09:32:33.666Z,99492.41
2023-05-06T09:35:01.222Z,99487.91
2023-05-06T09:37:28.185Z,99486.94
2023-05-06T09:40:00.552Z,99486.88
2023-05-06T09:42:29.687Z,99483.91
2023-05-06T09:47:42.283Z,99484.38
2023-05-06T09:50:09.461Z,99475.56
2023-05-06T09:52:37.137Z,99473.00
2023-05-06T09:55:04.344Z,99470.00
2023-05-06T09:57:32.546Z,99472.44
2023-05-06T10:00:01.419Z,99463.94
2023-05-06T10:02:29.857Z,99454.78
2023-05-06T10:04:57.696Z,99451.69
2023-05-06T10:07:28.776Z,99447.09
2023-05-06T10:09:58.412Z,99447.94
2023-05-06T10:12:26.230Z,99445.34
2023-05-06T10:14:53.063Z,99439.44
2023-05-06T10:17:27.249Z,99442.53
2023-05-06T10:19:59.022Z,99444.31
2023-05-06T10:22:46.952Z,99439.81
2023-05-06T10:25:32.360Z,99434.56
2023-05-06T10:27:59.932Z,99437.13
2023-05-06T10:30:28.544Z,99436.44
2023-05-06T10:32:57.290Z,99424.59
2023-05-06T10:35:32.634Z,99434.88
2023-05-06T10:38:02.721Z,99424.91
2023-05-06T10:40:29.757Z,99424.22
2023-05-06T10:43:24.471Z,99423.56
2023-05-06T10:46:01.660Z,99412.25
2023-05-06T10:48:29.667Z,99418.19
2023-05-06T10:51:21.275Z,99407.59
2023-05-06T10:54:07.772Z,99411.63
2023-05-06T10:56:54.207Z,99411.44
2023-05-06T10:59:22.060Z,99412.72
2023-05-06T11:02:07.637Z,99400.91
2023-05-06T11:04:34.459Z,99406.56
2023-05-06T11:07:15.421Z,99403.78
2023-05-06T11:10:02.312Z,99393.91
2023-05-06T11:12:52.471Z,99398.94
2023-05-06T11:15:26.645Z,99389.72
2023-05-06T11:17:55.910Z,99383.19
2023-05-06T11:20:24.029Z,99387.66
2023-05-06T11:22:50.910Z,99387.69
2023-05-06T11:25:41.233Z,99387.91
2023-05-06T11:28:15.438Z,99381.75
2023-05-06T11:30:43.935Z,99383.91
2023-05-06T11:33:19.070Z,99383.59
2023-05-06T11:35:46.227Z,99387.56
2023-05-06T11:38:12.831Z,99385.25
2023-05-06T11:40:41.859Z,99380.88
2023-05-06T11:43:15.679Z,99383.66
2023-05-06T11:45:46.975Z,99378.91
2023-05-06T11:48:14.758Z,99375.72
2023-05-06T11:50:48.687Z,99377.25
2023-05-06T11:53:19.117Z,99379.25
2023-05-06T11:55:46.703Z,99383.09
2023-05-06T11:58:16.728Z,99375.50
2023-05-06T12:00:54.329Z,99373.44
2023-05-06T12:03:21.770Z,99374.44
2023-05-06T12:05:49.997Z,99375.91
2023-05-06T12:08:27.543Z,99373.56
2023-05-06T12:11:00.750Z,99372.03
2023-05-06T12:13:28.510Z,99369.47
2023-05-06T12:15:56.890Z,99373.91
2023-05-06T12:18:24.485Z,99373.16
2023-05-06T12:20:54.611Z,99374.72
2023-05-06T12:23:22.197Z,99374.66
2023-05-06T12:26:04.404Z,99359.91
2023-05-06T12:28:32.422Z,99365.69
2023-05-06T12:30:59.347Z,99367.69
2023-05-06T12:33:26.023Z,99367.50
2023-05-06T12:35:54.791Z,99362.97
2023-05-06T12:38:21.510Z,99360.69
2023-05-06T12:40:54.849Z,99364.63
2023-05-06T12:43:32.624Z,99369.00
2023-05-06T12:46:07.386Z,99365.03
2023-05-06T12:48:34.105Z,99365.03
2023-05-06T12:51:16.966Z,99358.00
2023-05-06T12:53:43.752Z,99355.78
2023-05-06T12:56:10.258Z,99360.81
2023-05-06T12:58:38.088Z,99364.69
2023-05-06T13:01:04.800Z,99365.88
2023-05-06T13:03:31.504Z,99356.38
2023-05-06T13:05:58.142Z,99355.97
2023-05-06T13:08:24.725Z,99348.81
2023-05-06T13:10:51.224Z,99350.34
2023-05-06T13:13:17.829Z,99348.00
2023-05-06T13:15:44.468Z,99346.50
2023-05-06T13:18:11.030Z,99339.91
2023-05-06T13:20:37.787Z,99338.91
2023-05-06T13:23:04.802Z,99338.63
2023-05-06T13:25:31.352Z,99335.56
2023-05-06T13:27:57.855Z,99337.59
2023-05-06T13:30:24.436Z,99331.28
2023-05-06T13:32:51.032Z,99335.25
2023-05-06T13:35:17.601Z,99330.50
2023-05-06T13:37:44.158Z,99321.03
2023-05-06T13:40:11.961Z,99322.63
2023-05-06T13:42:39.016Z,99321.47
2023-05-06T13:45:06.274Z,99312.34
2023-05-06T13:47:32.813Z,99310.00
2023-05-06T13:49:59.492Z,99311.16
2023-05-06T13:52:26.298Z,99309.94
2023-05-06T13:54:52.824Z,99321.00
2023-05-06T13:57:19.578Z,99314.16
2023-05-06T13:59:46.146Z,99312.09
2023-05-06T14:02:13.420Z,99306.13
2023-05-06T14:04:40.254Z,99308.03
2023-05-06T14:07:06.807Z,99314.28
2023-05-06T14:09:33.363Z,99310.25
2023-05-06T14:11:59.919Z,99310.53
2023-05-06T14:14:27.466Z,99312.44
2023-05-06T14:16:55.594Z,99306.03
2023-05-06T14:19:22.232Z,99299.63
2023-05-06T14:21:48.807Z,99308.22
2023-05-06T14:24:15.343Z,99303.41
2023-05-06T14:26:42.730Z,99311.56
2023-05-06T14:29:09.359Z,99309.53
2023-05-06T14:31:35.995Z,99313.44
2023-05-06T14:34:02.910Z,99297.72
2023-05-06T14:36:29.478Z,99300.91
2023-05-06T14:38:56.216Z,99294.97
2023-05-06T14:41:22.811Z,99298.53
2023-05-06T14:43:49.340Z,99298.28
2023-05-06T14:46:16.343Z,99291.63
2023-05-06T14:48:43.424Z,99285.44
2023-05-06T14:51:09.977Z,99275.19
2023-05-06T14:53:36.636Z,99283.50
2023-05-06T14:56:03.181Z,99286.66
2023-05-06T14:58:29.760Z,99281.91
2023-05-06T15:00:57.040Z,99281.56
2023-05-06T15:03:23.676Z,99282.34
2023-05-06T15:05:51.065Z,99273.22
2023-05-06T15:08:17.757Z,99280.63
2023-05-06T15:10:44.421Z,99278.25
2023-05-06T15:13:11.044Z,99276.22
2023-05-06T15:15:37.733Z,99275.81
2023-05-06T15:18:04.481Z,99275.41
2023-05-06T15:20:31.156Z,99277.44
2023-05-06T15:22:57.716Z,99278.66
2023-05-06T15:25:34.060Z,99289.88
2023-05-06T15:28:02.459Z,99284.66
2023-05-06T15:30:29.005Z,99275.28
2023-05-06T15:32:55.600Z,99278.88
2023-05-06T15:35:22.312Z,99285.13
2023-05-06T15:37:48.834Z,99282.69
2023-05-06T15:40:15.454Z,99281.06
2023-05-06T15:42:42.094Z,99275.41
2023-05-06T15:45:09.079Z,99276.91
2023-05-06T15:47:35.698Z,99283.59
2023-05-06T15:50:06.829Z,99291.88
2023-05-06T15:52:37.770Z,99291.69
2023-05-06T15:55:05.130Z,99281.31
2023-05-06T15:57:31.848Z,99284.00
2023-05-06T15:59:58.423Z,99286.66
2023-05-06T16:02:27.256Z,99283.88
2023-05-06T16:04:54.763Z,99281.13
2023-05-06T16:07:21.523Z,99276.38
2023-05-06T16:09:48.054Z,99277.13
2023-05-06T16:12:14.771Z,99280.31
2023-05-06T16:14:41.387Z,99270.16
2023-05-06T16:17:08.026Z,99271.78
2023-05-06T16:19:35.165Z,99266.38
2023-05-06T16:22:02.490Z,99273.44
2023-05-06T16:24:29.078Z,99274.22
2023-05-06T16:26:55.943Z,99269.53
2023-05-06T16:29:23.021Z,99266.84
2023-05-06T16:31:49.666Z,99258.69
2023-05-06T16:34:16.357Z,99258.75
2023-05-06T16:36:43.719Z,99263.53
2023-05-06T16:39:10.296Z,99256.44
2023-05-06T16:41:36.823Z,99261.94
2023-05-06T16:44:03.395Z,99253.25
2023-05-06T16:46:30.098Z,99253.13
2023-05-06T16:48:56.649Z,99259.72
2023-05-06T16:51:23.266Z,99252.94
2023-05-06T16:53:49.970Z,99253.75
2023-05-06T16:56:16.822Z,99258.94
2023-05-06T16:58:43.567Z,99257.00
2023-05-06T17:01:11.321Z,99251.06
2023-05-06T17:03:38.260Z,99245.16
2023-05-06T17:06:05.342Z,99255.75
2023-05-06T17:08:36.006Z,99249.00
2023-05-06T17:11:06.828Z,99243.00
2023-05-06T17:13:33.973Z,99244.88
2023-05-06T17:16:00.911Z,99253.00
2023-05-06T17:18:27.498Z,99243.41
2023-05-06T17:20:56.396Z,99246.03
2023-05-06T17:23:24.237Z,99247.50
2023-05-06T17:25:51.355Z,99233.22
2023-05-06T17:28:18.821Z,99244.91
2023-05-06T17:30:45.922Z,99238.47
2023-05-06T17:33:12.944Z,99233.53
2023-05-06T17:35:39.711Z,99235.75
2023-05-06T17:38:06.251Z,99242.22
2023-05-06T17:40:32.836Z,99244.75
2023-05-06T17:42:59.445Z,99244.56
2023-05-06T17:45:26.934Z,99238.03
2023-05-06T17:47:53.638Z,99250.47
2023-05-06T17:50:20.404Z,99238.91
2023-05-06T17:52:50.718Z,99243.13
2023-05-06T17:55:17.814Z,99247.28
2023-05-06T17:57:44.536Z,99245.16
2023-05-06T18:00:11.731Z,99238.69
2023-05-06T18:02:38.692Z,99243.97
2023-05-06T18:05:06.492Z,99242.25
2023-05-06T18:07:33.204Z,99246.81
2023-05-06T18:09:59.874Z,99245.88
2023-05-06T18:12:26.437Z,99248.50
2023-05-06T18:14:53.186Z,99248.38
2023-05-06T18:17:19.753Z,99259.56
2023-05-06T18:19:46.251Z,99253.13
2023-05-06T18:22:13.145Z,99251.38
2023-05-06T18:24:39.779Z,99257.59
2023-05-06T18:27:06.307Z,99262.59
2023-05-06T18:29:34.755Z,99264.44
2023-05-06T18:32:01.719Z,99262.09
2023-05-06T18:34:28.386Z,99271.03
2023-05-06T18:36:55.000Z,99261.13
2023-05-06T18:39:23.650Z,99259.44
2023-05-06T18:41:50.245Z,99260.88
2023-05-06T18:44:16.778Z,99267.78
2023-05-06T18:46:43.355Z,99266.47
2023-05-06T18:49:09.966Z,99272.66
2023-05-06T18:51:36.913Z,99272.22
2023-05-06T18:54:03.533Z,99278.34
2023-05-06T18:56:30.093Z,99273.50
2023-05-06T18:58:57.266Z,99275.63
2023-05-06T19:01:25.149Z,99276.25
2023-05-06T19:03:54.389Z,99276.91
2023-05-06T19:06:20.958Z,99272.13
2023-05-06T19:08:47.593Z,99276.69
2023-05-06T19:11:21.198Z,99279.72
2023-05-06T19:13:47.769Z,99278.84
2023-05-06T19:16:14.331Z,99276.38
2023-05-06T19:18:41.041Z,99282.09
2023-05-06T19:21:12.555Z,99281.88
2023-05-06T19:23:39.526Z,99289.22
2023-05-06T19:26:07.178Z,99288.34
2023-05-06T19:28:34.410Z,99293.72
2023-05-06T19:31:01.147Z,99292.00
2023-05-06T19:33:27.703Z,99295.47
2023-05-06T19:35:54.258Z,99292.53
2023-05-06T19:38:21.333Z,99293.94
2023-05-06T19:40:47.966Z,99292.63
2023-05-06T19:43:14.690Z,99298.31
2023-05-06T19:45:41.869Z,99295.94
2023-05-06T19:48:08.723Z,99297.00
2023-05-06T19:50:35.537Z,99296.88
2023-05-06T19:53:03.318Z,99294.94
2023-05-06T19:55:29.888Z,99310.47
2023-05-06T19:57:56.993Z,99304.56
2023-05-06T20:00:25.533Z,99301.38
2023-05-06T20:02:52.181Z,99299.75
2023-05-06T20:05:18.899Z,99300.91
2023-05-06T20:07:45.892Z,99297.72
2023-05-06T20:10:13.654Z,99298.88
2023-05-06T20:12:43.585Z,99300.72
2023-05-06T20:15:10.668Z,99304.16
2023-05-06T20:17:37.573Z,99305.84
2023-05-06T20:20:09.518Z,99307.34
2023-05-06T20:22:40.038Z,99309.84
2023-05-06T20:25:17.515Z,99301.00
2023-05-06T20:27:45.241Z,99309.91
2023-05-06T20:30:12.355Z,99304.88
2023-05-06T20:32:40.458Z,99312.06
2023-05-06T20:35:07.837Z,99309.81
2023-05-06T20:37:35.402Z,99309.94
2023-05-06T20:40:04.747Z,99312.09
2023-05-06T20:42:31.965Z,99315.44
2023-05-06T20:44:58.990Z,99312.91
2023-05-06T20:47:25.690Z,99318.13
2023-05-06T20:49:52.286Z,99310.16
2023-05-06T20:52:18.948Z,99308.09
2023-05-06T20:54:45.756Z,99319.69
2023-05-06T20:57:14.245Z,99302.84
2023-05-06T20:59:41.106Z,99305.81
2023-05-06T21:02:07.881Z,99312.28
2023-05-06T21:04:34.522Z,99316.50
2023-05-06T21:07:01.210Z,99311.59
2023-05-06T21:09:28.673Z,99309.88
2023-05-06T21:11:55.997Z,99307.34
2023-05-06T21:14:24.956Z,99302.59
2023-05-06T21:16:52.146Z,99306.22
2023-05-06T21:19:19.367Z,99305.28
2023-05-06T21:21:45.980Z,99306.97
2023-05-06T21:24:13.056Z,99302.06
2023-05-06T21:26:40.011Z,99302.59
2023-05-06T21:29:06.659Z,99309.06
2023-05-06T21:31:33.421Z,99303.16
2023-05-06T21:34:00.160Z,99297.91
2023-05-06T21:36:27.296Z,99307.91
2023-05-06T21:39:06.588Z,99306.16
2023-05-06T21:41:35.483Z,99301.69
2023-05-06T21:44:03.317Z,99306.56
2023-05-06T21:46:30.166Z,99311.41
2023-05-06T21:48:57.003Z,99301.50
2023-05-06T21:51:23.605Z,99307.47
2023-05-06T21:53:50.868Z,99304.63
2023-05-06T21:56:18.437Z,99298.59
2023-05-06T21:58:45.092Z,99305.03
2023-05-06T22:01:11.853Z,99311.50
2023-05-06T22:03:38.654Z,99307.34
2023-05-06T22:06:06.007Z,99305.63
2023-05-06T22:08:32.653Z,99307.09
2023-05-06T22:10:59.193Z,99300.69
2023-05-06T22:13:27.094Z,99305.22
2023-05-06T22:15:53.978Z,99302.66
2023-05-06T22:18:20.603Z,99301.41
2023-05-06T22:20:49.234Z,99299.69
2023-05-06T22:23:15.887Z,99306.09
2023-05-06T22:25:42.420Z,99305.31
2023-05-06T22:28:08.947Z,99302.13
2023-05-06T22:30:35.685Z,99304.38
2023-05-06T22:33:02.240Z,99310.50
2023-05-06T22:35:28.880Z,99314.34
2023-05-06T22:37:55.391Z,99312.59
2023-05-06T22:40:21.904Z,99317.25
2023-05-06T22:42:48.478Z,99327.66
2023-05-06T22:45:15.084Z,99313.91
2023-05-06T22:47:41.686Z,99317.25
2023-05-06T22:50:08.963Z,99323.03
2023-05-06T22:52:35.520Z,99312.81
2023-05-06T22:55:02.243Z,99303.69
2023-05-06T22:57:28.859Z,99298.41
2023-05-06T22:59:55.574Z,99300.53
2023-05-06T23:02:22.132Z,99291.75
2023-05-06T23:04:48.698Z,99294.00
2023-05-06T23:07:15.768Z,99297.03
2023-05-06T23:09:42.337Z,99298.50
2023-05-06T23:12:08.915Z,99295.31
2023-05-06T23:14:35.558Z,99286.66
2023-05-06T23:17:02.100Z,99281.88
2023-05-06T23:19:28.679Z,99291.81
2023-05-06T23:21:55.252Z,99293.13
2023-05-06T23:24:21.802Z,99287.22
2023-05-06T23:26:48.322Z,99283.03
2023-05-06T23:29:14.943Z,99276.34
2023-05-06T23:31:41.438Z,99275.53
2023-05-06T23:34:08.103Z,99272.81
2023-05-06T23:36:34.719Z,99272.34
2023-05-06T23:39:01.252Z,99274.59
2023-05-06T23:41:27.799Z,99270.47
2023-05-06T23:43:54.296Z,99281.19
2023-05-06T23:46:20.935Z,99282.66
2023-05-06T23:48:47.602Z,99278.31
2023-05-06T23:51:14.103Z,99284.38
2023-05-06T23:53:41.025Z,99279.59
2023-05-06T23:56:07.741Z,99288.41
2023-05-06T23:58:34.269Z,99292.91
